createdAt,value
2016-09-06T00:00:10.548Z,0
2016-09-06T00:00:31.145Z,0
2016-09-06T00:00:51.742Z,0
2016-09-06T00:01:12.298Z,0
2016-09-06T00:01:32.850Z,0
2016-09-06T00:01:53.398Z,0
2016-09-06T00:02:13.967Z,0
2016-09-06T00:02:34.518Z,0
2016-09-06T00:02:55.090Z,0
2016-09-06T00:03:15.644Z,0
2016-09-06T00:03:36.169Z,0
2016-09-06T00:03:56.746Z,0
2016-09-06T00:04:17.339Z,0
2016-09-06T00:04:37.910Z,0
2016-09-06T00:04:58.494Z,0
2016-09-06T00:05:19.068Z,0
2016-09-06T00:05:39.627Z,0
2016-09-06T00:06:00.181Z,0
2016-09-06T00:06:20.773Z,0
2016-09-06T00:06:41.347Z,0
2016-09-06T00:07:01.956Z,0
2016-09-06T00:07:22.543Z,0
2016-09-06T00:07:43.084Z,0
2016-09-06T00:08:03.658Z,0
2016-09-06T00:08:24.237Z,0
2016-09-06T00:08:44.818Z,0
2016-09-06T00:09:05.380Z,0
2016-09-06T00:09:25.935Z,0
2016-09-06T00:09:46.499Z,0
2016-09-06T00:10:07.070Z,0
2016-09-06T00:10:27.644Z,0
2016-09-06T00:10:48.225Z,0
2016-09-06T00:11:08.795Z,0
2016-09-06T00:11:29.356Z,0
2016-09-06T00:11:49.945Z,0
2016-09-06T00:12:10.541Z,0
2016-09-06T00:12:31.102Z,0
2016-09-06T00:12:51.648Z,0
2016-09-06T00:13:12.210Z,0
2016-09-06T00:13:32.804Z,0
2016-09-06T00:13:53.361Z,0
2016-09-06T00:14:13.937Z,0
2016-09-06T00:14:34.501Z,0
2016-09-06T00:14:55.057Z,0
2016-09-06T00:15:15.636Z,0
2016-09-06T00:15:36.202Z,0
2016-09-06T00:15:56.795Z,0
2016-09-06T00:16:17.367Z,0
2016-09-06T00:16:37.953Z,0
2016-09-06T00:16:58.534Z,0
2016-09-06T00:17:19.092Z,0
2016-09-06T00:17:39.641Z,0
2016-09-06T00:18:00.188Z,0
2016-09-06T00:18:20.749Z,0
2016-09-06T00:18:41.310Z,0
2016-09-06T00:19:01.909Z,0
2016-09-06T00:19:22.479Z,0
2016-09-06T00:19:43.041Z,0
2016-09-06T00:20:03.618Z,0
2016-09-06T00:20:24.197Z,0
2016-09-06T00:20:44.777Z,0
2016-09-06T00:21:05.339Z,0
2016-09-06T00:21:25.893Z,0
2016-09-06T00:21:46.427Z,0
2016-09-06T00:22:07.020Z,0
2016-09-06T00:22:27.622Z,0
2016-09-06T00:22:48.172Z,0
2016-09-06T00:23:08.716Z,0
2016-09-06T00:23:29.275Z,0
2016-09-06T00:23:49.858Z,0
2016-09-06T00:24:10.408Z,0
2016-09-06T00:24:30.964Z,0
2016-09-06T00:24:51.543Z,0
2016-09-06T00:25:12.151Z,0
2016-09-06T00:25:32.708Z,0
2016-09-06T00:25:53.265Z,0
2016-09-06T00:26:13.834Z,0
2016-09-06T00:26:34.403Z,0
2016-09-06T00:26:54.975Z,0
2016-09-06T00:27:15.526Z,0
2016-09-06T00:27:36.092Z,0
2016-09-06T00:27:56.659Z,0
2016-09-06T00:28:17.239Z,0
2016-09-06T00:28:37.816Z,0
2016-09-06T00:28:58.387Z,0
2016-09-06T00:29:18.988Z,0
2016-09-06T00:29:39.551Z,0
2016-09-06T00:30:00.117Z,0
2016-09-06T00:30:20.661Z,0
2016-09-06T00:30:41.227Z,0
2016-09-06T00:31:01.787Z,0
2016-09-06T00:31:22.372Z,0
2016-09-06T00:31:42.928Z,0
2016-09-06T00:32:03.491Z,0
2016-09-06T00:32:24.024Z,0
2016-09-06T00:32:44.572Z,0
2016-09-06T00:33:05.136Z,0
2016-09-06T00:33:25.727Z,0
2016-09-06T00:33:46.271Z,0
2016-09-06T00:34:06.856Z,0
2016-09-06T00:34:27.437Z,0
2016-09-06T00:34:47.993Z,0
2016-09-06T00:35:08.560Z,0
2016-09-06T00:35:29.121Z,0
2016-09-06T00:35:49.693Z,0
2016-09-06T00:36:10.258Z,0
2016-09-06T00:36:30.841Z,0
2016-09-06T00:36:51.393Z,0
2016-09-06T00:37:11.974Z,0
2016-09-06T00:37:32.532Z,0
2016-09-06T00:37:53.114Z,0
2016-09-06T00:38:13.668Z,0
2016-09-06T00:38:34.245Z,0
2016-09-06T00:38:54.807Z,0
2016-09-06T00:39:15.361Z,0
2016-09-06T00:39:35.930Z,0
2016-09-06T00:39:56.500Z,0
2016-09-06T00:40:17.035Z,0
2016-09-06T00:40:37.577Z,0
2016-09-06T00:40:58.131Z,0
2016-09-06T00:41:18.697Z,0
2016-09-06T00:41:39.264Z,0
2016-09-06T00:41:59.841Z,0
2016-09-06T00:42:20.410Z,0
2016-09-06T00:42:40.968Z,0
2016-09-06T00:43:01.541Z,0
2016-09-06T00:43:22.109Z,0
2016-09-06T00:43:42.692Z,0
2016-09-06T00:44:03.261Z,0
2016-09-06T00:44:23.830Z,0
2016-09-06T00:44:44.404Z,0
2016-09-06T00:45:04.949Z,0
2016-09-06T00:45:25.523Z,0
2016-09-06T00:45:46.097Z,0
2016-09-06T00:46:06.660Z,0
2016-09-06T00:46:27.218Z,0
2016-09-06T00:46:47.767Z,0
2016-09-06T00:47:08.350Z,0
2016-09-06T00:47:28.943Z,0
2016-09-06T00:47:49.516Z,0
2016-09-06T00:48:10.102Z,0
2016-09-06T00:48:30.650Z,0
2016-09-06T00:48:51.221Z,0
2016-09-06T00:49:11.787Z,0
2016-09-06T00:49:32.361Z,0
2016-09-06T00:49:52.927Z,0
2016-09-06T00:50:13.474Z,0
2016-09-06T00:50:34.009Z,0
2016-09-06T00:50:54.584Z,0
2016-09-06T00:51:15.161Z,0
2016-09-06T00:51:35.737Z,0
2016-09-06T00:51:56.318Z,0
2016-09-06T00:52:16.894Z,0
2016-09-06T00:52:37.464Z,0
2016-09-06T00:52:58.038Z,0
2016-09-06T00:53:18.616Z,0
2016-09-06T00:53:39.163Z,0
2016-09-06T00:53:59.744Z,0
2016-09-06T00:54:20.315Z,0
2016-09-06T00:54:40.859Z,0
2016-09-06T00:55:01.443Z,0
2016-09-06T00:55:22.001Z,0
2016-09-06T00:55:42.558Z,0
2016-09-06T00:56:03.130Z,0
2016-09-06T00:56:23.700Z,0
2016-09-06T00:56:44.261Z,0
2016-09-06T00:57:04.823Z,0
2016-09-06T00:57:25.405Z,0
2016-09-06T00:57:45.987Z,0
2016-09-06T00:58:06.576Z,0
2016-09-06T00:58:27.123Z,0
2016-09-06T00:58:47.704Z,0
2016-09-06T00:59:08.286Z,0
2016-09-06T00:59:28.852Z,0
2016-09-06T00:59:49.423Z,0
2016-09-06T01:00:10.012Z,0
2016-09-06T01:00:30.576Z,0
2016-09-06T01:00:51.179Z,0
2016-09-06T01:01:11.736Z,0
2016-09-06T01:01:32.305Z,0
2016-09-06T01:01:52.871Z,0
2016-09-06T01:02:13.478Z,0
2016-09-06T01:02:34.019Z,0
2016-09-06T01:02:54.576Z,0
2016-09-06T01:03:15.154Z,0
2016-09-06T01:03:35.722Z,0
2016-09-06T01:03:56.263Z,0
2016-09-06T01:04:16.878Z,0
2016-09-06T01:04:37.442Z,0
2016-09-06T01:04:58.019Z,0
2016-09-06T01:05:18.601Z,0
2016-09-06T01:05:39.201Z,0
2016-09-06T01:05:59.744Z,0
2016-09-06T01:06:20.308Z,0
2016-09-06T01:06:40.893Z,0
2016-09-06T01:07:01.463Z,0
2016-09-06T01:07:22.039Z,0
2016-09-06T01:07:42.591Z,0
2016-09-06T01:08:03.175Z,0
2016-09-06T01:08:23.749Z,0
2016-09-06T01:08:44.326Z,0
2016-09-06T01:09:04.885Z,0
2016-09-06T01:09:25.459Z,0
2016-09-06T01:09:46.015Z,0
2016-09-06T01:10:06.620Z,0
2016-09-06T01:10:27.178Z,0
2016-09-06T01:10:47.740Z,0
2016-09-06T01:11:08.316Z,0
2016-09-06T01:11:28.881Z,0
2016-09-06T01:11:49.450Z,0
2016-09-06T01:12:10.022Z,0
2016-09-06T01:12:30.597Z,0
2016-09-06T01:12:51.148Z,0
2016-09-06T01:13:11.701Z,0
2016-09-06T01:13:32.281Z,0
2016-09-06T01:13:52.845Z,0
2016-09-06T01:14:13.418Z,0
2016-09-06T01:14:33.968Z,0
2016-09-06T01:14:54.543Z,0
2016-09-06T01:15:15.111Z,0
2016-09-06T01:15:35.685Z,0
2016-09-06T01:15:56.273Z,0
2016-09-06T01:16:16.846Z,0
2016-09-06T01:16:37.407Z,0
2016-09-06T01:16:58.435Z,0
2016-09-06T01:17:19.013Z,0
2016-09-06T01:17:39.591Z,0
2016-09-06T01:18:00.159Z,0
2016-09-06T01:18:20.722Z,0
2016-09-06T01:18:41.259Z,0
2016-09-06T01:19:01.835Z,0
2016-09-06T01:19:22.409Z,0
2016-09-06T01:19:42.981Z,0
2016-09-06T01:20:03.557Z,0
2016-09-06T01:20:24.138Z,0
2016-09-06T01:20:44.699Z,0
2016-09-06T01:21:05.318Z,0
2016-09-06T01:21:25.885Z,0
2016-09-06T01:21:46.454Z,0
2016-09-06T01:22:07.055Z,0
2016-09-06T01:22:27.613Z,0
2016-09-06T01:22:48.192Z,0
2016-09-06T01:23:08.733Z,0
2016-09-06T01:23:29.312Z,0
2016-09-06T01:23:49.878Z,0
2016-09-06T01:24:10.444Z,0
2016-09-06T01:24:31.011Z,0
2016-09-06T01:24:51.582Z,0
2016-09-06T01:25:12.247Z,0
2016-09-06T01:25:32.818Z,0
2016-09-06T01:25:53.382Z,0
2016-09-06T01:26:13.974Z,0
2016-09-06T01:26:34.540Z,0
2016-09-06T01:26:55.094Z,0
2016-09-06T01:27:15.670Z,0
2016-09-06T01:27:36.258Z,0
2016-09-06T01:27:56.835Z,0
2016-09-06T01:28:17.452Z,0
2016-09-06T01:28:38.034Z,0
2016-09-06T01:28:58.627Z,0
2016-09-06T01:29:19.176Z,0
2016-09-06T01:29:39.738Z,0
2016-09-06T01:30:00.329Z,0
2016-09-06T01:30:20.923Z,0
2016-09-06T01:30:41.537Z,0
2016-09-06T01:31:02.084Z,0
2016-09-06T01:31:22.650Z,0
2016-09-06T01:31:43.229Z,0
2016-09-06T01:32:03.819Z,0
2016-09-06T01:32:24.417Z,0
2016-09-06T01:32:44.983Z,0
2016-09-06T01:33:05.574Z,0
2016-09-06T01:33:26.155Z,0
2016-09-06T01:33:46.740Z,0
2016-09-06T01:34:07.320Z,0
2016-09-06T01:34:27.892Z,0
2016-09-06T01:34:48.489Z,0
2016-09-06T01:35:09.050Z,0
2016-09-06T01:35:29.615Z,0
2016-09-06T01:35:50.187Z,0
2016-09-06T01:36:10.731Z,0
2016-09-06T01:36:31.296Z,0
2016-09-06T01:36:51.865Z,0
2016-09-06T01:37:12.463Z,0
2016-09-06T01:37:33.023Z,0
2016-09-06T01:37:53.581Z,0
2016-09-06T01:38:14.170Z,0
2016-09-06T01:38:34.759Z,0
2016-09-06T01:38:55.344Z,0
2016-09-06T01:39:15.882Z,0
2016-09-06T01:39:36.439Z,0
2016-09-06T01:39:57.008Z,0
2016-09-06T01:40:17.560Z,0
2016-09-06T01:40:38.131Z,0
2016-09-06T01:41:00.259Z,0
2016-09-06T01:41:20.842Z,0
2016-09-06T01:41:41.395Z,0
2016-09-06T01:42:01.948Z,0
2016-09-06T01:42:22.530Z,0
2016-09-06T01:42:43.063Z,0
2016-09-06T01:43:03.653Z,0
2016-09-06T01:43:24.198Z,0
2016-09-06T01:43:44.757Z,0
2016-09-06T01:44:05.317Z,0
2016-09-06T01:44:25.888Z,0
2016-09-06T01:44:46.425Z,0
2016-09-06T01:45:07.059Z,0
2016-09-06T01:45:27.616Z,0
2016-09-06T01:45:48.159Z,0
2016-09-06T01:46:08.745Z,0
2016-09-06T01:46:29.312Z,0
2016-09-06T01:46:49.913Z,0
2016-09-06T01:47:10.522Z,0
2016-09-06T01:47:31.136Z,0
2016-09-06T01:47:51.689Z,0
2016-09-06T01:48:12.250Z,0
2016-09-06T01:48:32.793Z,0
2016-09-06T01:48:53.341Z,0
2016-09-06T01:49:13.958Z,0
2016-09-06T01:49:34.526Z,0
2016-09-06T01:49:55.092Z,0
2016-09-06T01:50:15.661Z,0
2016-09-06T01:50:36.233Z,0
2016-09-06T01:50:56.796Z,0
2016-09-06T01:51:17.356Z,0
2016-09-06T01:51:37.918Z,0
2016-09-06T01:51:58.481Z,0
2016-09-06T01:52:19.056Z,0
2016-09-06T01:52:39.638Z,0
2016-09-06T01:53:00.216Z,0
2016-09-06T01:53:20.796Z,0
2016-09-06T01:53:41.368Z,0
2016-09-06T01:54:01.921Z,0
2016-09-06T01:54:22.477Z,0
2016-09-06T01:54:43.070Z,0
2016-09-06T01:55:03.649Z,0
2016-09-06T01:55:24.199Z,0
2016-09-06T01:55:44.771Z,0
2016-09-06T01:56:05.330Z,0
2016-09-06T01:56:25.895Z,0
2016-09-06T01:56:46.483Z,0
2016-09-06T01:57:07.075Z,0
2016-09-06T01:57:27.643Z,0
2016-09-06T01:57:48.212Z,0
2016-09-06T01:58:08.770Z,0
2016-09-06T01:58:29.354Z,0
2016-09-06T01:58:49.918Z,0
2016-09-06T01:59:10.520Z,0
2016-09-06T01:59:31.103Z,0
2016-09-06T01:59:51.679Z,0
2016-09-06T02:00:12.234Z,0
2016-09-06T02:00:32.821Z,0
2016-09-06T02:00:53.382Z,0
2016-09-06T02:01:13.979Z,0
2016-09-06T02:01:34.576Z,0
2016-09-06T02:01:55.141Z,0
2016-09-06T02:02:15.701Z,0
2016-09-06T02:02:36.271Z,0
2016-09-06T02:02:56.855Z,0
2016-09-06T02:03:17.416Z,0
2016-09-06T02:03:38.006Z,0
2016-09-06T02:03:58.578Z,0
2016-09-06T02:04:19.136Z,0
2016-09-06T02:04:39.690Z,0
2016-09-06T02:05:00.278Z,0
2016-09-06T02:05:20.844Z,0
2016-09-06T02:05:41.420Z,0
2016-09-06T02:06:02.011Z,0
2016-09-06T02:06:22.563Z,0
2016-09-06T02:06:43.132Z,0
2016-09-06T02:07:03.699Z,0
2016-09-06T02:07:24.277Z,0
2016-09-06T02:07:44.843Z,0
2016-09-06T02:08:05.409Z,0
2016-09-06T02:08:25.933Z,0
2016-09-06T02:08:46.507Z,0
2016-09-06T02:09:07.088Z,0
2016-09-06T02:09:27.640Z,0
2016-09-06T02:09:48.210Z,0
2016-09-06T02:10:08.769Z,0
2016-09-06T02:10:29.351Z,0
2016-09-06T02:10:49.921Z,0
2016-09-06T02:11:10.501Z,0
2016-09-06T02:11:31.083Z,0
2016-09-06T02:11:51.667Z,0
2016-09-06T02:12:12.246Z,0
2016-09-06T02:12:32.841Z,0
2016-09-06T02:12:53.411Z,0
2016-09-06T02:13:13.991Z,0
2016-09-06T02:13:34.567Z,0
2016-09-06T02:13:55.162Z,0
2016-09-06T02:14:15.742Z,0
2016-09-06T02:14:36.320Z,0
2016-09-06T02:14:56.880Z,0
2016-09-06T02:15:17.458Z,0
2016-09-06T02:15:38.037Z,0
2016-09-06T02:15:58.596Z,0
2016-09-06T02:16:19.165Z,0
2016-09-06T02:16:39.730Z,0
2016-09-06T02:17:00.307Z,0
2016-09-06T02:17:20.880Z,0
2016-09-06T02:17:41.455Z,0
2016-09-06T02:18:02.027Z,0
2016-09-06T02:18:22.606Z,0
2016-09-06T02:18:43.173Z,0
2016-09-06T02:19:03.749Z,0
2016-09-06T02:19:24.326Z,0
2016-09-06T02:19:44.911Z,0
2016-09-06T02:20:05.492Z,0
2016-09-06T02:20:26.071Z,0
2016-09-06T02:20:46.635Z,0
2016-09-06T02:21:07.210Z,0
2016-09-06T02:21:27.784Z,0
2016-09-06T02:21:48.360Z,0
2016-09-06T02:22:08.924Z,0
2016-09-06T02:22:29.489Z,0
2016-09-06T02:22:50.057Z,0
2016-09-06T02:23:10.673Z,0
2016-09-06T02:23:31.252Z,0
2016-09-06T02:23:51.830Z,0
2016-09-06T02:24:12.394Z,0
2016-09-06T02:24:32.953Z,0
2016-09-06T02:24:53.509Z,0
2016-09-06T02:25:14.067Z,0
2016-09-06T02:25:34.632Z,0
2016-09-06T02:25:55.214Z,0
2016-09-06T02:26:15.778Z,0
2016-09-06T02:26:36.351Z,0
2016-09-06T02:26:56.901Z,0
2016-09-06T02:27:17.464Z,0
2016-09-06T02:27:38.032Z,0
2016-09-06T02:27:58.589Z,0
2016-09-06T02:28:19.201Z,0
2016-09-06T02:28:39.755Z,0
2016-09-06T02:29:00.324Z,0
2016-09-06T02:29:20.894Z,0
2016-09-06T02:29:41.450Z,0
2016-09-06T02:30:02.020Z,0
2016-09-06T02:30:22.579Z,0
2016-09-06T02:30:43.147Z,0
2016-09-06T02:31:03.735Z,0
2016-09-06T02:31:24.304Z,0
2016-09-06T02:31:44.876Z,0
2016-09-06T02:32:05.460Z,0
2016-09-06T02:32:26.033Z,0
2016-09-06T02:32:46.611Z,0
2016-09-06T02:33:07.194Z,0
2016-09-06T02:33:27.781Z,0
2016-09-06T02:33:48.339Z,0
2016-09-06T02:34:08.916Z,0
2016-09-06T02:34:29.490Z,0
2016-09-06T02:34:50.066Z,0
2016-09-06T02:35:10.619Z,0
2016-09-06T02:35:31.186Z,0
2016-09-06T02:35:51.752Z,0
2016-09-06T02:36:12.365Z,0
2016-09-06T02:36:32.928Z,0
2016-09-06T02:36:53.492Z,0
2016-09-06T02:37:14.071Z,0
2016-09-06T02:37:34.644Z,0
2016-09-06T02:37:55.216Z,0
2016-09-06T02:38:15.826Z,0
2016-09-06T02:38:36.384Z,0
2016-09-06T02:38:56.950Z,0
2016-09-06T02:39:17.515Z,0
2016-09-06T02:39:38.088Z,0
2016-09-06T02:39:58.701Z,0
2016-09-06T02:40:19.256Z,0
2016-09-06T02:40:39.851Z,0
2016-09-06T02:41:00.435Z,0
2016-09-06T02:41:20.997Z,0
2016-09-06T02:41:41.574Z,0
2016-09-06T02:42:02.139Z,0
2016-09-06T02:42:22.699Z,0
2016-09-06T02:42:43.256Z,0
2016-09-06T02:43:03.826Z,0
2016-09-06T02:43:24.396Z,0
2016-09-06T02:43:44.988Z,0
2016-09-06T02:44:05.554Z,0
2016-09-06T02:44:26.152Z,0
2016-09-06T02:44:46.707Z,0
2016-09-06T02:45:07.285Z,0
2016-09-06T02:45:27.825Z,0
2016-09-06T02:45:48.395Z,0
2016-09-06T02:46:08.996Z,0
2016-09-06T02:46:29.556Z,0
2016-09-06T02:46:50.139Z,0
2016-09-06T02:47:10.726Z,0
2016-09-06T02:47:31.298Z,0
2016-09-06T02:47:51.863Z,0
2016-09-06T02:48:12.422Z,0
2016-09-06T02:48:33.020Z,0
2016-09-06T02:48:53.578Z,0
2016-09-06T02:49:14.149Z,0
2016-09-06T02:49:34.718Z,0
2016-09-06T02:49:55.302Z,0
2016-09-06T02:50:15.883Z,0
2016-09-06T02:50:36.456Z,0
2016-09-06T02:50:57.049Z,0
2016-09-06T02:51:17.636Z,0
2016-09-06T02:51:38.197Z,0
2016-09-06T02:51:58.769Z,0
2016-09-06T02:52:19.362Z,0
2016-09-06T02:52:39.905Z,0
2016-09-06T02:53:00.473Z,0
2016-09-06T02:53:21.059Z,0
2016-09-06T02:53:41.631Z,0
2016-09-06T02:54:02.217Z,0
2016-09-06T02:54:22.792Z,0
2016-09-06T02:54:43.366Z,0
2016-09-06T02:55:03.933Z,0
2016-09-06T02:55:24.524Z,0
2016-09-06T02:55:45.096Z,0
2016-09-06T02:56:05.691Z,0
2016-09-06T02:56:26.282Z,0
2016-09-06T02:56:46.860Z,0
2016-09-06T02:57:07.438Z,0
2016-09-06T02:57:27.973Z,0
2016-09-06T02:57:48.541Z,0
2016-09-06T02:58:09.112Z,0
2016-09-06T02:58:29.659Z,0
2016-09-06T02:58:50.242Z,0
2016-09-06T02:59:10.796Z,0
2016-09-06T02:59:31.358Z,0
2016-09-06T02:59:51.946Z,0
2016-09-06T03:00:12.536Z,0
2016-09-06T03:00:33.114Z,0
2016-09-06T03:00:53.765Z,0
2016-09-06T03:01:14.344Z,0
2016-09-06T03:01:34.908Z,0
2016-09-06T03:01:55.491Z,0
2016-09-06T03:02:16.033Z,0
2016-09-06T03:02:36.584Z,0
2016-09-06T03:02:57.155Z,0
2016-09-06T03:03:17.733Z,0
2016-09-06T03:03:38.299Z,0
2016-09-06T03:03:58.876Z,0
2016-09-06T03:04:19.469Z,0
2016-09-06T03:04:40.059Z,0
2016-09-06T03:05:00.626Z,0
2016-09-06T03:05:21.207Z,0
2016-09-06T03:05:41.799Z,0
2016-09-06T03:06:02.372Z,0
2016-09-06T03:06:22.956Z,0
2016-09-06T03:06:43.538Z,0
2016-09-06T03:07:04.102Z,0
2016-09-06T03:07:24.652Z,0
2016-09-06T03:07:45.211Z,0
2016-09-06T03:08:05.761Z,0
2016-09-06T03:08:26.330Z,0
2016-09-06T03:08:46.891Z,0
2016-09-06T03:09:07.462Z,0
2016-09-06T03:09:28.056Z,0
2016-09-06T03:09:48.647Z,0
2016-09-06T03:10:09.235Z,0
2016-09-06T03:10:29.789Z,0
2016-09-06T03:10:50.346Z,0
2016-09-06T03:11:10.919Z,0
2016-09-06T03:11:31.526Z,0
2016-09-06T03:11:52.082Z,0
2016-09-06T03:12:12.651Z,0
2016-09-06T03:12:33.190Z,0
2016-09-06T03:12:53.774Z,0
2016-09-06T03:13:14.353Z,0
2016-09-06T03:13:34.934Z,0
2016-09-06T03:13:55.535Z,0
2016-09-06T03:14:16.105Z,0
2016-09-06T03:14:36.675Z,0
2016-09-06T03:14:57.249Z,0
2016-09-06T03:15:17.833Z,0
2016-09-06T03:15:38.391Z,0
2016-09-06T03:15:58.940Z,0
2016-09-06T03:16:19.505Z,0
2016-09-06T03:16:40.088Z,0
2016-09-06T03:17:00.662Z,0
2016-09-06T03:17:21.261Z,0
2016-09-06T03:17:41.819Z,0
2016-09-06T03:18:02.394Z,0
2016-09-06T03:18:22.937Z,0
2016-09-06T03:18:43.505Z,0
2016-09-06T03:19:04.060Z,0
2016-09-06T03:19:24.668Z,0
2016-09-06T03:19:45.245Z,0
2016-09-06T03:20:05.824Z,0
2016-09-06T03:20:26.378Z,0
2016-09-06T03:20:46.981Z,0
2016-09-06T03:21:07.577Z,0
2016-09-06T03:21:28.153Z,0
2016-09-06T03:21:48.744Z,0
2016-09-06T03:22:09.421Z,0
2016-09-06T03:22:29.984Z,0
2016-09-06T03:22:50.552Z,0
2016-09-06T03:23:11.100Z,0
2016-09-06T03:23:31.693Z,0
2016-09-06T03:23:52.288Z,0
2016-09-06T03:24:12.856Z,0
2016-09-06T03:24:33.413Z,0
2016-09-06T03:24:54.020Z,0
2016-09-06T03:25:14.611Z,0
2016-09-06T03:25:35.208Z,0
2016-09-06T03:25:55.790Z,0
2016-09-06T03:26:16.337Z,0
2016-09-06T03:26:36.901Z,0
2016-09-06T03:26:57.456Z,0
2016-09-06T03:27:18.044Z,0
2016-09-06T03:27:38.641Z,0
2016-09-06T03:27:59.199Z,0
2016-09-06T03:28:19.757Z,0
2016-09-06T03:28:40.313Z,0
2016-09-06T03:29:00.893Z,0
2016-09-06T03:29:21.459Z,0
2016-09-06T03:29:42.070Z,0
2016-09-06T03:30:02.651Z,0
2016-09-06T03:30:23.203Z,0
2016-09-06T03:30:43.764Z,0
2016-09-06T03:31:04.339Z,0
2016-09-06T03:31:24.910Z,0
2016-09-06T03:31:45.504Z,0
2016-09-06T03:32:06.075Z,0
2016-09-06T03:32:26.619Z,0
2016-09-06T03:32:47.186Z,0
2016-09-06T03:33:07.752Z,0
2016-09-06T03:33:28.302Z,0
2016-09-06T03:33:48.875Z,0
2016-09-06T03:34:09.441Z,0
2016-09-06T03:34:30.016Z,0
2016-09-06T03:34:50.558Z,0
2016-09-06T03:35:11.134Z,0
2016-09-06T03:35:31.713Z,0
2016-09-06T03:35:52.285Z,0
2016-09-06T03:36:12.851Z,0
2016-09-06T03:36:33.416Z,0
2016-09-06T03:36:53.992Z,0
2016-09-06T03:37:14.575Z,0
2016-09-06T03:37:35.152Z,0
2016-09-06T03:37:55.695Z,0
2016-09-06T03:38:16.272Z,0
2016-09-06T03:38:36.815Z,0
2016-09-06T03:38:57.390Z,0
2016-09-06T03:39:17.971Z,0
2016-09-06T03:39:38.545Z,0
2016-09-06T03:39:59.108Z,0
2016-09-06T03:40:19.668Z,0
2016-09-06T03:40:40.231Z,0
2016-09-06T03:41:00.792Z,0
2016-09-06T03:41:21.380Z,0
2016-09-06T03:41:41.939Z,0
2016-09-06T03:42:02.523Z,0
2016-09-06T03:42:23.084Z,0
2016-09-06T03:42:43.656Z,0
2016-09-06T03:43:04.226Z,0
2016-09-06T03:43:24.815Z,0
2016-09-06T03:43:45.372Z,0
2016-09-06T03:44:05.930Z,0
2016-09-06T03:44:26.502Z,0
2016-09-06T03:44:47.060Z,0
2016-09-06T03:45:07.634Z,0
2016-09-06T03:45:28.192Z,0
2016-09-06T03:45:48.773Z,0
2016-09-06T03:46:09.329Z,0
2016-09-06T03:46:29.917Z,0
2016-09-06T03:46:50.504Z,0
2016-09-06T03:47:11.079Z,0
2016-09-06T03:47:31.671Z,0
2016-09-06T03:47:52.207Z,0
2016-09-06T03:48:12.771Z,0
2016-09-06T03:48:33.341Z,0
2016-09-06T03:48:53.919Z,0
2016-09-06T03:49:14.497Z,0
2016-09-06T03:49:35.079Z,0
2016-09-06T03:49:55.658Z,0
2016-09-06T03:50:16.203Z,0
2016-09-06T03:50:36.769Z,0
2016-09-06T03:50:57.373Z,0
2016-09-06T03:51:17.951Z,0
2016-09-06T03:51:38.524Z,0
2016-09-06T03:51:59.082Z,0
2016-09-06T03:52:19.633Z,4
2016-09-06T03:52:40.219Z,4
2016-09-06T03:53:00.813Z,4
2016-09-06T03:53:21.390Z,4
2016-09-06T03:53:41.986Z,0
2016-09-06T03:54:02.546Z,4
2016-09-06T03:54:23.159Z,4
2016-09-06T03:54:43.738Z,0
2016-09-06T03:55:04.301Z,0
2016-09-06T03:55:24.892Z,0
2016-09-06T03:55:45.457Z,0
2016-09-06T03:56:06.047Z,0
2016-09-06T03:56:26.631Z,4
2016-09-06T03:56:47.229Z,4
2016-09-06T03:57:07.802Z,4
2016-09-06T03:57:28.377Z,0
2016-09-06T03:57:48.927Z,0
2016-09-06T03:58:09.484Z,0
2016-09-06T03:58:30.132Z,4
2016-09-06T03:58:50.713Z,4
2016-09-06T03:59:11.273Z,4
2016-09-06T03:59:31.836Z,0
2016-09-06T03:59:52.381Z,4
2016-09-06T04:00:12.965Z,4
2016-09-06T04:00:33.530Z,4
2016-09-06T04:00:54.091Z,4
2016-09-06T04:01:14.651Z,4
2016-09-06T04:01:35.246Z,4
2016-09-06T04:01:55.813Z,4
2016-09-06T04:02:16.381Z,8
2016-09-06T04:02:36.959Z,4
2016-09-06T04:02:57.526Z,8
2016-09-06T04:03:18.101Z,4
2016-09-06T04:03:38.652Z,8
2016-09-06T04:03:59.233Z,4
2016-09-06T04:04:19.828Z,4
2016-09-06T04:04:40.412Z,8
2016-09-06T04:05:00.986Z,8
2016-09-06T04:05:21.584Z,12
2016-09-06T04:05:42.159Z,8
2016-09-06T04:06:02.722Z,12
2016-09-06T04:06:23.307Z,12
2016-09-06T04:06:43.892Z,12
2016-09-06T04:07:04.467Z,12
2016-09-06T04:07:25.045Z,12
2016-09-06T04:07:45.595Z,12
2016-09-06T04:08:06.149Z,12
2016-09-06T04:08:26.711Z,12
2016-09-06T04:08:47.305Z,12
2016-09-06T04:09:07.868Z,12
2016-09-06T04:09:28.432Z,12
2016-09-06T04:09:49.023Z,12
2016-09-06T04:10:09.598Z,12
2016-09-06T04:10:30.157Z,12
2016-09-06T04:10:50.802Z,16
2016-09-06T04:11:11.408Z,16
2016-09-06T04:11:31.988Z,16
2016-09-06T04:11:52.572Z,16
2016-09-06T04:12:13.138Z,24
2016-09-06T04:12:33.714Z,24
2016-09-06T04:12:54.294Z,24
2016-09-06T04:13:14.838Z,32
2016-09-06T04:13:35.427Z,32
2016-09-06T04:13:56.009Z,32
2016-09-06T04:14:16.611Z,36
2016-09-06T04:14:37.208Z,44
2016-09-06T04:14:57.756Z,44
2016-09-06T04:15:18.309Z,48
2016-09-06T04:15:38.872Z,52
2016-09-06T04:15:59.462Z,52
2016-09-06T04:16:20.009Z,60
2016-09-06T04:16:40.591Z,60
2016-09-06T04:17:01.126Z,60
2016-09-06T04:17:21.721Z,60
2016-09-06T04:17:42.296Z,64
2016-09-06T04:18:02.873Z,68
2016-09-06T04:18:23.468Z,68
2016-09-06T04:18:44.045Z,68
2016-09-06T04:19:04.612Z,68
2016-09-06T04:19:25.171Z,68
2016-09-06T04:19:45.749Z,68
2016-09-06T04:20:06.323Z,72
2016-09-06T04:20:26.901Z,76
2016-09-06T04:20:47.464Z,72
2016-09-06T04:21:07.999Z,72
2016-09-06T04:21:28.551Z,76
2016-09-06T04:21:49.117Z,80
2016-09-06T04:22:09.688Z,76
2016-09-06T04:22:30.286Z,76
2016-09-06T04:22:50.848Z,72
2016-09-06T04:23:11.411Z,68
2016-09-06T04:23:31.972Z,72
2016-09-06T04:23:52.560Z,68
2016-09-06T04:24:13.183Z,72
2016-09-06T04:24:33.731Z,68
2016-09-06T04:24:54.271Z,68
2016-09-06T04:25:14.829Z,72
2016-09-06T04:25:35.399Z,76
2016-09-06T04:25:55.978Z,80
2016-09-06T04:26:16.565Z,88
2016-09-06T04:26:37.136Z,104
2016-09-06T04:26:57.698Z,120
2016-09-06T04:27:18.278Z,132
2016-09-06T04:27:38.853Z,144
2016-09-06T04:27:59.535Z,160
2016-09-06T04:28:20.109Z,168
2016-09-06T04:28:40.694Z,164
2016-09-06T04:29:01.259Z,184
2016-09-06T04:29:21.833Z,204
2016-09-06T04:29:42.427Z,216
2016-09-06T04:30:03.039Z,220
2016-09-06T04:30:23.619Z,216
2016-09-06T04:30:44.192Z,212
2016-09-06T04:31:04.769Z,208
2016-09-06T04:31:25.359Z,216
2016-09-06T04:31:45.941Z,196
2016-09-06T04:32:06.506Z,172
2016-09-06T04:32:27.164Z,176
2016-09-06T04:32:47.736Z,172
2016-09-06T04:33:08.277Z,184
2016-09-06T04:33:28.854Z,212
2016-09-06T04:33:50.301Z,212
2016-09-06T04:34:10.882Z,220
2016-09-06T04:34:31.451Z,196
2016-09-06T04:34:52.025Z,188
2016-09-06T04:35:12.604Z,192
2016-09-06T04:35:33.176Z,192
2016-09-06T04:35:53.717Z,196
2016-09-06T04:36:14.305Z,200
2016-09-06T04:36:34.868Z,216
2016-09-06T04:36:55.429Z,232
2016-09-06T04:37:15.996Z,244
2016-09-06T04:37:36.584Z,252
2016-09-06T04:37:57.168Z,244
2016-09-06T04:38:17.751Z,244
2016-09-06T04:38:38.312Z,260
2016-09-06T04:38:58.888Z,264
2016-09-06T04:39:19.474Z,272
2016-09-06T04:39:40.032Z,276
2016-09-06T04:40:00.636Z,280
2016-09-06T04:40:21.200Z,284
2016-09-06T04:40:41.767Z,288
2016-09-06T04:41:02.342Z,304
2016-09-06T04:41:22.946Z,320
2016-09-06T04:41:43.526Z,324
2016-09-06T04:42:04.110Z,324
2016-09-06T04:42:24.656Z,328
2016-09-06T04:42:45.250Z,336
2016-09-06T04:43:05.865Z,336
2016-09-06T04:43:26.434Z,344
2016-09-06T04:43:47.022Z,368
2016-09-06T04:44:07.604Z,392
2016-09-06T04:44:28.197Z,420
2016-09-06T04:44:48.777Z,456
2016-09-06T04:45:09.361Z,480
2016-09-06T04:45:29.938Z,488
2016-09-06T04:45:50.521Z,492
2016-09-06T04:46:11.098Z,496
2016-09-06T04:46:31.661Z,492
2016-09-06T04:46:52.248Z,496
2016-09-06T04:47:12.838Z,516
2016-09-06T04:47:33.429Z,536
2016-09-06T04:47:54.011Z,540
2016-09-06T04:48:14.563Z,536
2016-09-06T04:48:35.130Z,536
2016-09-06T04:48:55.711Z,544
2016-09-06T04:49:16.291Z,556
2016-09-06T04:49:36.844Z,564
2016-09-06T04:49:57.442Z,576
2016-09-06T04:50:17.985Z,588
2016-09-06T04:50:38.604Z,592
2016-09-06T04:50:59.347Z,584
2016-09-06T04:51:20.005Z,588
2016-09-06T04:51:40.560Z,624
2016-09-06T04:52:01.131Z,668
2016-09-06T04:52:21.703Z,684
2016-09-06T04:52:43.979Z,704
2016-09-06T04:53:04.559Z,720
2016-09-06T04:53:25.142Z,692
2016-09-06T04:53:45.748Z,684
2016-09-06T04:54:06.313Z,712
2016-09-06T04:54:26.882Z,756
2016-09-06T04:54:47.448Z,772
2016-09-06T04:55:08.027Z,788
2016-09-06T04:55:28.603Z,764
2016-09-06T04:55:49.163Z,760
2016-09-06T04:56:09.728Z,768
2016-09-06T04:56:30.281Z,796
2016-09-06T04:56:51.053Z,800
2016-09-06T04:57:11.989Z,820
2016-09-06T04:57:32.653Z,848
2016-09-06T04:57:53.294Z,860
2016-09-06T04:58:13.917Z,836
2016-09-06T04:58:34.960Z,796
2016-09-06T04:58:55.532Z,800
2016-09-06T04:59:16.219Z,816
2016-09-06T04:59:36.833Z,844
2016-09-06T04:59:57.395Z,852
2016-09-06T05:00:17.976Z,880
2016-09-06T05:00:38.545Z,928
2016-09-06T05:00:59.127Z,976